Fortune Daisy — VRHV5 — position and weather

sailwx.info

Track history (hours):
 
Tides and Currents Weather Stations Pressure Air Temp Water Temp Dewpoint Dewpoint Depression Visibility Wind Speed Wind Dir Waves Ship Positions

Fortune Daisy

Last reported at 2018-Jun-21 13:59 UTC. Time now 2018-Jun-21 14:09 UTC.
Position N 45°38' W 122°43'.

Length 225 m; draft 7 m.

Type: Cargo ship. MMSI: 477892500.

Date/timePositionNaut miles runAvg speedWind from/ knotsBaromVisibWave heightAir tempDewpointWater temp
2018-Jun-21 13:59N 45°38' W 122°43'0 0.0
2018-Jun-21 13:29N 45°38' W 122°43'0 0.0
2018-Jun-21 12:53N 45°38' W 122°43'0 0.0
2018-Jun-21 12:29N 45°38' W 122°43'0 0.0
2018-Jun-21 11:50N 45°38' W 122°43'0 0.0
2018-Jun-21 11:29N 45°38' W 122°43'0 0.0
2018-Jun-21 10:59N 45°38' W 122°43'0 0.0
2018-Jun-21 10:26N 45°38' W 122°43'0 0.0
2018-Jun-21 09:59N 45°38' W 122°43'0 0.0
2018-Jun-21 09:23N 45°38' W 122°43'0 0.0
2018-Jun-21 08:47N 45°38' W 122°43'0 0.0
2018-Jun-21 08:20N 45°38' W 122°43'0 0.0
2018-Jun-21 07:59N 45°38' W 122°43'0 0.0
2018-Jun-21 07:26N 45°38' W 122°43'0 0.0
2018-Jun-21 06:56N 45°38' W 122°43'0 0.0
2018-Jun-21 06:26N 45°38' W 122°43'0 0.0
2018-Jun-21 05:44N 45°38' W 122°43'0 0.0
2018-Jun-21 05:26N 45°38' W 122°43'0 0.0
2018-Jun-21 04:56N 45°38' W 122°43'0 0.0
2018-Jun-21 04:26N 45°38' W 122°43'0 0.0
2018-Jun-21 03:59N 45°38' W 122°43'0 0.0
2018-Jun-21 03:24N 45°38' W 122°43'0 0.0
2018-Jun-21 02:56N 45°38' W 122°43'0 0.0
2018-Jun-21 02:26N 45°38' W 122°43'0 0.0
2018-Jun-21 01:47N 45°38' W 122°43'0 0.0
2018-Jun-21 01:22N 45°38' W 122°43'0 0.0
2018-Jun-21 00:48N 45°38' W 122°43'0 0.1
2018-Jun-21 00:30N 45°38' W 122°43'3 5.8
2018-Jun-20 23:57N 45°41' W 122°47'511.6
2018-Jun-20 23:30N 45°46' W 122°46'811.1
2018-Jun-20 22:49N 45°53' W 122°48'510.9
2018-Jun-20 22:23N 45°58' W 122°49'4 9.8
2018-Jun-20 21:57N 46°02' W 122°53'4 9.2
2018-Jun-20 21:28N 46°05' W 122°55'4 8.4
2018-Jun-20 21:00N 46°08' W 122°60'712.0
2018-Jun-20 20:27N 46°11' W 123°08'4 8.8
2018-Jun-20 19:58N 46°10' W 123°14'610.3
2018-Jun-20 19:22N 46°09' W 123°23'3 8.5
2018-Jun-20 19:00N 46°11' W 123°26'6 9.9
2018-Jun-20 18:24N 46°16' W 123°30'510.6
2018-Jun-20 17:56N 46°15' W 123°37'510.3
2018-Jun-20 17:24N 46°13' W 123°45'3 6.6
2018-Jun-20 16:58N 46°12' W 123°48'0 0.1
2018-Jun-20 16:12N 46°12' W 123°49'0 0.1
2018-Jun-20 15:51N 46°12' W 123°49'0 0.3
2018-Jun-20 14:59N 46°12' W 123°48'0 0.0
2018-Jun-20 14:14N 46°12' W 123°48'0 0.0
2018-Jun-20 13:59N 46°12' W 123°48'0 0.0
2018-Jun-20 13:28N 46°12' W 123°48'0 0.0
2018-Jun-20 12:43N 46°12' W 123°48'0 0.0
2018-Jun-20 12:16N 46°12' W 123°48'0 0.0
2018-Jun-20 11:46N 46°12' W 123°48'0 0.1
2018-Jun-20 11:27N 46°12' W 123°48'0 0.2
2018-Jun-20 10:28N 46°12' W 123°49'0 0.0
2018-Jun-20 09:55N 46°12' W 123°49'0 0.0
2018-Jun-20 09:31N 46°12' W 123°49'0 0.0
2018-Jun-20 09:00N 46°12' W 123°49'0 0.1
2018-Jun-20 08:30N 46°12' W 123°49'0 0.0
2018-Jun-20 08:00N 46°12' W 123°49'0 0.0
2018-Jun-20 07:30N 46°12' W 123°49'0 0.1
2018-Jun-20 06:57N 46°12' W 123°49'0 0.0
2018-Jun-20 05:33N 46°12' W 123°49'0 0.0
2018-Jun-20 05:30N 46°12' W 123°49'0 0.0
2018-Jun-20 05:00N 46°12' W 123°49'0 0.0
2018-Jun-20 04:30N 46°12' W 123°49'0 0.1
2018-Jun-20 03:57N 46°12' W 123°49'0 0.4
2018-Jun-20 03:18N 46°12' W 123°48'0 0.0
2018-Jun-20 03:00N 46°12' W 123°48'0 0.0
2018-Jun-20 02:30N 46°12' W 123°48'0 0.0
2018-Jun-20 02:00N 46°12' W 123°48'0 0.0
2018-Jun-20 01:30N 46°12' W 123°48'0 0.0
2018-Jun-20 01:00N 46°12' W 123°48'0 0.0
2018-Jun-20 00:12N 46°12' W 123°48'0 0.1
2018-Jun-20 00:00N 46°12' W 123°48'0 0.0
2018-Jun-19 23:30N 46°12' W 123°48'0 0.0
2018-Jun-19 23:00N 46°12' W 123°48'0 0.0
2018-Jun-19 22:27N 46°12' W 123°48'0 0.0
2018-Jun-19 21:57N 46°12' W 123°48'0 0.3
2018-Jun-19 20:54N 46°12' W 123°48'0 0.1
2018-Jun-19 20:30N 46°12' W 123°49'0 0.0
2018-Jun-19 20:00N 46°12' W 123°49'0 0.0
2018-Jun-19 19:30N 46°12' W 123°49'0 0.1
2018-Jun-19 18:57N 46°12' W 123°49'0 0.0
2018-Jun-19 18:30N 46°12' W 123°49'0 0.0
2018-Jun-19 17:42N 46°12' W 123°49'0 0.0
2018-Jun-19 17:30N 46°12' W 123°49'0 0.0
2018-Jun-19 17:00N 46°12' W 123°49'4 4.6
2018-Jun-19 16:07N 46°11' W 123°54'1 9.0
2018-Jun-19 16:00N 46°12' W 123°56'7 8.9
2018-Jun-19 15:16N 46°15' W 124°04'310.1
2018-Jun-19 15:00N 46°14' W 124°07'710.6
2018-Jun-19 14:22N 46°11' W 124°16'3 7.6
2018-Jun-19 14:00N 46°12' W 124°20'4 8.5
2018-Jun-19 13:30N 46°12' W 124°26'0 0.7
2018-Jun-19 13:00N 46°12' W 124°26'0 0.4
2018-Jun-19 12:30N 46°12' W 124°27'0 0.7
2018-Jun-19 12:00N 46°12' W 124°27'2 3.3
2018-Jun-19 11:28N 46°12' W 124°30'3 6.4
2018-Jun-19 11:00N 46°12' W 124°34'1 2.9
2018-Jun-19 10:30N 46°11' W 124°36'3 6.5
2018-Jun-19 10:00N 46°10' W 124°40'3 5.0
2018-Jun-19 09:30N 46°09' W 124°43'0 0.9
2018-Jun-19 09:00N 46°10' W 124°44'0 0.9
2018-Jun-19 08:30N 46°10' W 124°44'0 1.0
2018-Jun-19 08:00N 46°11' W 124°44'1 1.1
2018-Jun-19 07:30N 46°11' W 124°44'1 1.1
2018-Jun-19 07:00N 46°12' W 124°44'1 1.1
2018-Jun-19 06:30N 46°12' W 124°44'1 1.1
2018-Jun-19 06:00N 46°13' W 124°45'1 1.2
2018-Jun-19 05:30N 46°13' W 124°45'1 1.1
2018-Jun-19 05:00N 46°14' W 124°45'1 1.1
2018-Jun-19 04:30N 46°14' W 124°46'0 0.7
2018-Jun-19 04:00N 46°14' W 124°46'0 0.9
2018-Jun-19 03:30N 46°15' W 124°47'1 1.0
2018-Jun-19 03:00N 46°15' W 124°47'0 0.5
2018-Jun-19 02:30N 46°15' W 124°48'2 4.6
2018-Jun-19 02:00N 46°15' W 124°44'4 8.4
2018-Jun-19 01:30N 46°15' W 124°38'2 3.1
2018-Jun-19 01:00N 46°15' W 124°36'1 2.0
2018-Jun-19 00:30N 46°15' W 124°38'1 1.4
2018-Jun-19 00:00N 46°15' W 124°39'1 1.4
2018-Jun-18 23:30N 46°15' W 124°39'1 1.3
2018-Jun-18 23:00N 46°15' W 124°40'1 1.5
2018-Jun-18 22:30N 46°15' W 124°42'1 1.2
2018-Jun-18 22:00N 46°15' W 124°42'1 1.4
2018-Jun-18 21:30N 46°15' W 124°43'1 1.1
2018-Jun-18 21:00N 46°15' W 124°44'1 1.2
2018-Jun-18 20:30N 46°15' W 124°45'1 1.2
2018-Jun-18 20:00N 46°15' W 124°46'1 1.0
2018-Jun-18 19:30N 46°16' W 124°47'0 0.9
2018-Jun-18 19:00N 46°16' W 124°47'0 0.8
2018-Jun-18 18:30N 46°16' W 124°48'0 0.8
2018-Jun-18 18:00N 46°16' W 124°48'1 0.9
2018-Jun-18 17:21N 46°17' W 124°48'0 0.5
2018-Jun-18 17:00N 46°17' W 124°48'1 2.1
2018-Jun-18 16:30N 46°17' W 124°47'4 8.1
2018-Jun-18 16:00N 46°14' W 124°42'3 5.8
2018-Jun-18 15:30N 46°13' W 124°39'0 0.9
2018-Jun-18 15:00N 46°13' W 124°38'1 1.0
2018-Jun-18 14:30N 46°13' W 124°39'0 0.9
2018-Jun-18 14:00N 46°13' W 124°39'0 0.8
2018-Jun-18 13:30N 46°14' W 124°40'0 0.8
2018-Jun-18 13:00N 46°14' W 124°40'0 0.8
2018-Jun-18 12:30N 46°14' W 124°41'0 0.6
2018-Jun-18 12:00N 46°14' W 124°41'0 0.7
2018-Jun-18 11:30N 46°14' W 124°42'0 0.8
2018-Jun-18 11:00N 46°14' W 124°42'0 0.8
2018-Jun-18 10:30N 46°14' W 124°43'0 0.5
2018-Jun-18 10:00N 46°14' W 124°43'0 0.3
2018-Jun-18 09:30N 46°15' W 124°44'0 0.6
2018-Jun-18 09:00N 46°15' W 124°44'0 0.5
2018-Jun-18 08:30N 46°15' W 124°44'0 0.6
2018-Jun-18 08:00N 46°15' W 124°44'0 0.8
2018-Jun-18 07:30N 46°15' W 124°45'0 0.9
2018-Jun-18 07:00N 46°16' W 124°45'0 0.8
2018-Jun-18 06:30N 46°16' W 124°46'0 0.9
2018-Jun-18 06:00N 46°16' W 124°46'1 1.2
2018-Jun-18 05:30N 46°17' W 124°47'1 1.5
2018-Jun-18 05:00N 46°17' W 124°48'1 1.3
2018-Jun-18 04:30N 46°18' W 124°48'1 1.1
2018-Jun-18 04:00N 46°18' W 124°49'0 0.8
2018-Jun-18 03:30N 46°18' W 124°50'0 0.6
2018-Jun-18 03:00N 46°18' W 124°50'1 2.7
2018-Jun-18 02:30N 46°17' W 124°48'5 9.8
2018-Jun-18 02:00N 46°16' W 124°42'4 7.8
2018-Jun-18 01:30N 46°14' W 124°36'1 1.7
2018-Jun-18 01:00N 46°14' W 124°38'1 1.7
2018-Jun-18 00:30N 46°15' W 124°39'1 1.7
2018-Jun-18 00:00N 46°15' W 124°40'1 1.6
2018-Jun-17 23:30N 46°15' W 124°41'1 1.6
2018-Jun-17 22:47N 46°15' W 124°43'0 1.5
2018-Jun-17 22:30N 46°15' W 124°43'1 1.4
2018-Jun-17 22:00N 46°15' W 124°44'1 1.4
2018-Jun-17 21:17N 46°16' W 124°46'1 1.7
2018-Jun-17 20:56N 46°16' W 124°47'1 1.3
2018-Jun-17 20:23N 46°16' W 124°48'1 1.4
2018-Jun-17 20:00N 46°16' W 124°48'1 1.3
2018-Jun-17 19:30N 46°17' W 124°49'1 1.1
2018-Jun-17 19:00N 46°17' W 124°50'2 3.6
2018-Jun-17 18:30N 46°16' W 124°48'4 8.5
2018-Jun-17 18:00N 46°14' W 124°42'1 2.4
2018-Jun-17 17:30N 46°13' W 124°41'1 1.8
2018-Jun-17 17:00N 46°13' W 124°42'1 1.8
2018-Jun-17 16:30N 46°14' W 124°43'1 1.9
2018-Jun-17 15:56N 46°15' W 124°45'1 1.9
2018-Jun-17 15:30N 46°15' W 124°46'1 1.9
2018-Jun-17 15:00N 46°15' W 124°47'1 1.1
2018-Jun-17 14:30N 46°15' W 124°46'5 9.1
2018-Jun-17 14:00N 46°14' W 124°40'2 4.8
2018-Jun-17 13:30N 46°13' W 124°37'1 1.9
2018-Jun-17 13:00N 46°13' W 124°38'1 1.7
2018-Jun-17 12:30N 46°14' W 124°39'1 1.7
2018-Jun-17 12:00N 46°14' W 124°40'1 1.6
2018-Jun-17 11:30N 46°14' W 124°41'1 1.5
2018-Jun-17 11:00N 46°14' W 124°42'1 1.4
2018-Jun-17 10:30N 46°15' W 124°43'1 1.4
2018-Jun-17 09:48N 46°15' W 124°45'0 1.4
2018-Jun-17 09:30N 46°15' W 124°45'1 1.1
2018-Jun-17 09:00N 46°15' W 124°46'1 1.1
2018-Jun-17 08:30N 46°15' W 124°47'2 4.8
2018-Jun-17 08:00N 46°13' W 124°47'4 8.3
2018-Jun-17 07:30N 46°09' W 124°47'0 0.9
2018-Jun-17 07:00N 46°09' W 124°48'1 1.6
2018-Jun-17 06:30N 46°10' W 124°48'1 1.5
2018-Jun-17 06:00N 46°11' W 124°47'1 1.7
2018-Jun-17 05:30N 46°11' W 124°47'1 1.9
2018-Jun-17 05:00N 46°12' W 124°47'1 2.0
2018-Jun-17 04:30N 46°13' W 124°47'1 2.0
2018-Jun-17 04:00N 46°14' W 124°47'1 2.2
2018-Jun-17 03:30N 46°15' W 124°46'3 5.0
2018-Jun-17 03:00N 46°15' W 124°43'611.5
2018-Jun-17 02:30N 46°14' W 124°35'611.1
2018-Jun-17 01:57N 46°12' W 124°26'511.0
2018-Jun-17 01:30N 46°13' W 124°19'4 7.1
2018-Jun-17 01:00N 46°13' W 124°24'612.1
2018-Jun-17 00:30N 46°13' W 124°33'4 7.2
2018-Jun-17 00:00N 46°14' W 124°38'510.3
2018-Jun-16 23:30N 46°13' W 124°45'612.4
2018-Jun-16 23:00N 46°14' W 124°54'612.3
2018-Jun-16 22:30N 46°14' W 125°03'612.8
2018-Jun-16 22:00N 46°14' W 125°12'612.6
2018-Jun-16 21:30N 46°14' W 125°22'612.2
2018-Jun-16 21:00N 46°15' W 125°30'1112.2
2018-Jun-16 20:05N 46°15' W 125°47'112.1
2018-Jun-16 20:00N 46°16' W 125°48'611.0
2018-Jun-16 19:27N 46°16' W 125°57'  
Track history (hours):
 
Tides and Currents Weather Stations Pressure Air Temp Water Temp Dewpoint Dewpoint Depression Visibility Wind Speed Wind Dir Waves Ship Positions

Fortune Daisy

Last reported at 2018-Jun-21 13:59 UTC. Time now 2018-Jun-21 14:09 UTC.
Position N 45°38' W 122°43'.

Length 225 m; draft 7 m.

Type: Cargo ship. MMSI: 477892500.

Date/timePositionNaut miles runAvg speedWind from/ knotsBaromVisibWave heightAir tempDewpointWater temp
2018-Jun-21 13:59N 45°38' W 122°43'0 0.0
2018-Jun-21 13:29N 45°38' W 122°43'0 0.0
2018-Jun-21 12:53N 45°38' W 122°43'0 0.0
2018-Jun-21 12:29N 45°38' W 122°43'0 0.0
2018-Jun-21 11:50N 45°38' W 122°43'0 0.0
2018-Jun-21 11:29N 45°38' W 122°43'0 0.0
2018-Jun-21 10:59N 45°38' W 122°43'0 0.0
2018-Jun-21 10:26N 45°38' W 122°43'0 0.0
2018-Jun-21 09:59N 45°38' W 122°43'0 0.0
2018-Jun-21 09:23N 45°38' W 122°43'0 0.0
2018-Jun-21 08:47N 45°38' W 122°43'0 0.0
2018-Jun-21 08:20N 45°38' W 122°43'0 0.0
2018-Jun-21 07:59N 45°38' W 122°43'0 0.0
2018-Jun-21 07:26N 45°38' W 122°43'0 0.0
2018-Jun-21 06:56N 45°38' W 122°43'0 0.0
2018-Jun-21 06:26N 45°38' W 122°43'0 0.0
2018-Jun-21 05:44N 45°38' W 122°43'0 0.0
2018-Jun-21 05:26N 45°38' W 122°43'0 0.0
2018-Jun-21 04:56N 45°38' W 122°43'0 0.0
2018-Jun-21 04:26N 45°38' W 122°43'0 0.0
2018-Jun-21 03:59N 45°38' W 122°43'0 0.0
2018-Jun-21 03:24N 45°38' W 122°43'0 0.0
2018-Jun-21 02:56N 45°38' W 122°43'0 0.0
2018-Jun-21 02:26N 45°38' W 122°43'0 0.0
2018-Jun-21 01:47N 45°38' W 122°43'0 0.0
2018-Jun-21 01:22N 45°38' W 122°43'0 0.0
2018-Jun-21 00:48N 45°38' W 122°43'0 0.1
2018-Jun-21 00:30N 45°38' W 122°43'3 5.8
2018-Jun-20 23:57N 45°41' W 122°47'511.6
2018-Jun-20 23:30N 45°46' W 122°46'811.1
2018-Jun-20 22:49N 45°53' W 122°48'510.9
2018-Jun-20 22:23N 45°58' W 122°49'4 9.8
2018-Jun-20 21:57N 46°02' W 122°53'4 9.2
2018-Jun-20 21:28N 46°05' W 122°55'4 8.4
2018-Jun-20 21:00N 46°08' W 122°60'712.0
2018-Jun-20 20:27N 46°11' W 123°08'4 8.8
2018-Jun-20 19:58N 46°10' W 123°14'610.3
2018-Jun-20 19:22N 46°09' W 123°23'3 8.5
2018-Jun-20 19:00N 46°11' W 123°26'6 9.9
2018-Jun-20 18:24N 46°16' W 123°30'510.6
2018-Jun-20 17:56N 46°15' W 123°37'510.3
2018-Jun-20 17:24N 46°13' W 123°45'3 6.6
2018-Jun-20 16:58N 46°12' W 123°48'0 0.1
2018-Jun-20 16:12N 46°12' W 123°49'0 0.1
2018-Jun-20 15:51N 46°12' W 123°49'0 0.3
2018-Jun-20 14:59N 46°12' W 123°48'0 0.0
2018-Jun-20 14:14N 46°12' W 123°48'0 0.0
2018-Jun-20 13:59N 46°12' W 123°48'0 0.0
2018-Jun-20 13:28N 46°12' W 123°48'0 0.0
2018-Jun-20 12:43N 46°12' W 123°48'0 0.0
2018-Jun-20 12:16N 46°12' W 123°48'0 0.0
2018-Jun-20 11:46N 46°12' W 123°48'0 0.1
2018-Jun-20 11:27N 46°12' W 123°48'0 0.2
2018-Jun-20 10:28N 46°12' W 123°49'0 0.0
2018-Jun-20 09:55N 46°12' W 123°49'0 0.0
2018-Jun-20 09:31N 46°12' W 123°49'0 0.0
2018-Jun-20 09:00N 46°12' W 123°49'0 0.1
2018-Jun-20 08:30N 46°12' W 123°49'0 0.0
2018-Jun-20 08:00N 46°12' W 123°49'0 0.0
2018-Jun-20 07:30N 46°12' W 123°49'0 0.1
2018-Jun-20 06:57N 46°12' W 123°49'0 0.0
2018-Jun-20 05:33N 46°12' W 123°49'0 0.0
2018-Jun-20 05:30N 46°12' W 123°49'0 0.0
2018-Jun-20 05:00N 46°12' W 123°49'0 0.0
2018-Jun-20 04:30N 46°12' W 123°49'0 0.1
2018-Jun-20 03:57N 46°12' W 123°49'0 0.4
2018-Jun-20 03:18N 46°12' W 123°48'0 0.0
2018-Jun-20 03:00N 46°12' W 123°48'0 0.0
2018-Jun-20 02:30N 46°12' W 123°48'0 0.0
2018-Jun-20 02:00N 46°12' W 123°48'0 0.0
2018-Jun-20 01:30N 46°12' W 123°48'0 0.0
2018-Jun-20 01:00N 46°12' W 123°48'0 0.0
2018-Jun-20 00:12N 46°12' W 123°48'0 0.1
2018-Jun-20 00:00N 46°12' W 123°48'0 0.0
2018-Jun-19 23:30N 46°12' W 123°48'0 0.0
2018-Jun-19 23:00N 46°12' W 123°48'0 0.0
2018-Jun-19 22:27N 46°12' W 123°48'0 0.0
2018-Jun-19 21:57N 46°12' W 123°48'0 0.3
2018-Jun-19 20:54N 46°12' W 123°48'0 0.1
2018-Jun-19 20:30N 46°12' W 123°49'0 0.0
2018-Jun-19 20:00N 46°12' W 123°49'0 0.0
2018-Jun-19 19:30N 46°12' W 123°49'0 0.1
2018-Jun-19 18:57N 46°12' W 123°49'0 0.0
2018-Jun-19 18:30N 46°12' W 123°49'0 0.0
2018-Jun-19 17:42N 46°12' W 123°49'0 0.0
2018-Jun-19 17:30N 46°12' W 123°49'0 0.0
2018-Jun-19 17:00N 46°12' W 123°49'4 4.6
2018-Jun-19 16:07N 46°11' W 123°54'1 9.0
2018-Jun-19 16:00N 46°12' W 123°56'7 8.9
2018-Jun-19 15:16N 46°15' W 124°04'310.1
2018-Jun-19 15:00N 46°14' W 124°07'710.6
2018-Jun-19 14:22N 46°11' W 124°16'3 7.6
2018-Jun-19 14:00N 46°12' W 124°20'4 8.5
2018-Jun-19 13:30N 46°12' W 124°26'0 0.7
2018-Jun-19 13:00N 46°12' W 124°26'0 0.4
2018-Jun-19 12:30N 46°12' W 124°27'0 0.7
2018-Jun-19 12:00N 46°12' W 124°27'2 3.3
2018-Jun-19 11:28N 46°12' W 124°30'3 6.4
2018-Jun-19 11:00N 46°12' W 124°34'1 2.9
2018-Jun-19 10:30N 46°11' W 124°36'3 6.5
2018-Jun-19 10:00N 46°10' W 124°40'3 5.0
2018-Jun-19 09:30N 46°09' W 124°43'0 0.9
2018-Jun-19 09:00N 46°10' W 124°44'0 0.9
2018-Jun-19 08:30N 46°10' W 124°44'0 1.0
2018-Jun-19 08:00N 46°11' W 124°44'1 1.1
2018-Jun-19 07:30N 46°11' W 124°44'1 1.1
2018-Jun-19 07:00N 46°12' W 124°44'1 1.1
2018-Jun-19 06:30N 46°12' W 124°44'1 1.1
2018-Jun-19 06:00N 46°13' W 124°45'1 1.2
2018-Jun-19 05:30N 46°13' W 124°45'1 1.1
2018-Jun-19 05:00N 46°14' W 124°45'1 1.1
2018-Jun-19 04:30N 46°14' W 124°46'0 0.7
2018-Jun-19 04:00N 46°14' W 124°46'0 0.9
2018-Jun-19 03:30N 46°15' W 124°47'1 1.0
2018-Jun-19 03:00N 46°15' W 124°47'0 0.5
2018-Jun-19 02:30N 46°15' W 124°48'2 4.6
2018-Jun-19 02:00N 46°15' W 124°44'4 8.4
2018-Jun-19 01:30N 46°15' W 124°38'2 3.1
2018-Jun-19 01:00N 46°15' W 124°36'1 2.0
2018-Jun-19 00:30N 46°15' W 124°38'1 1.4
2018-Jun-19 00:00N 46°15' W 124°39'1 1.4
2018-Jun-18 23:30N 46°15' W 124°39'1 1.3
2018-Jun-18 23:00N 46°15' W 124°40'1 1.5
2018-Jun-18 22:30N 46°15' W 124°42'1 1.2
2018-Jun-18 22:00N 46°15' W 124°42'1 1.4
2018-Jun-18 21:30N 46°15' W 124°43'1 1.1
2018-Jun-18 21:00N 46°15' W 124°44'1 1.2
2018-Jun-18 20:30N 46°15' W 124°45'1 1.2
2018-Jun-18 20:00N 46°15' W 124°46'1 1.0
2018-Jun-18 19:30N 46°16' W 124°47'0 0.9
2018-Jun-18 19:00N 46°16' W 124°47'0 0.8
2018-Jun-18 18:30N 46°16' W 124°48'0 0.8
2018-Jun-18 18:00N 46°16' W 124°48'1 0.9
2018-Jun-18 17:21N 46°17' W 124°48'0 0.5
2018-Jun-18 17:00N 46°17' W 124°48'1 2.1
2018-Jun-18 16:30N 46°17' W 124°47'4 8.1
2018-Jun-18 16:00N 46°14' W 124°42'3 5.8
2018-Jun-18 15:30N 46°13' W 124°39'0 0.9
2018-Jun-18 15:00N 46°13' W 124°38'1 1.0
2018-Jun-18 14:30N 46°13' W 124°39'0 0.9
2018-Jun-18 14:00N 46°13' W 124°39'0 0.8
2018-Jun-18 13:30N 46°14' W 124°40'0 0.8
2018-Jun-18 13:00N 46°14' W 124°40'0 0.8
2018-Jun-18 12:30N 46°14' W 124°41'0 0.6
2018-Jun-18 12:00N 46°14' W 124°41'0 0.7
2018-Jun-18 11:30N 46°14' W 124°42'0 0.8
2018-Jun-18 11:00N 46°14' W 124°42'0 0.8
2018-Jun-18 10:30N 46°14' W 124°43'0 0.5
2018-Jun-18 10:00N 46°14' W 124°43'0 0.3
2018-Jun-18 09:30N 46°15' W 124°44'0 0.6
2018-Jun-18 09:00N 46°15' W 124°44'0 0.5
2018-Jun-18 08:30N 46°15' W 124°44'0 0.6
2018-Jun-18 08:00N 46°15' W 124°44'0 0.8
2018-Jun-18 07:30N 46°15' W 124°45'0 0.9
2018-Jun-18 07:00N 46°16' W 124°45'0 0.8
2018-Jun-18 06:30N 46°16' W 124°46'0 0.9
2018-Jun-18 06:00N 46°16' W 124°46'1 1.2
2018-Jun-18 05:30N 46°17' W 124°47'1 1.5
2018-Jun-18 05:00N 46°17' W 124°48'1 1.3
2018-Jun-18 04:30N 46°18' W 124°48'1 1.1
2018-Jun-18 04:00N 46°18' W 124°49'0 0.8
2018-Jun-18 03:30N 46°18' W 124°50'0 0.6
2018-Jun-18 03:00N 46°18' W 124°50'1 2.7
2018-Jun-18 02:30N 46°17' W 124°48'5 9.8
2018-Jun-18 02:00N 46°16' W 124°42'4 7.8
2018-Jun-18 01:30N 46°14' W 124°36'1 1.7
2018-Jun-18 01:00N 46°14' W 124°38'1 1.7
2018-Jun-18 00:30N 46°15' W 124°39'1 1.7
2018-Jun-18 00:00N 46°15' W 124°40'1 1.6
2018-Jun-17 23:30N 46°15' W 124°41'1 1.6
2018-Jun-17 22:47N 46°15' W 124°43'0 1.5
2018-Jun-17 22:30N 46°15' W 124°43'1 1.4
2018-Jun-17 22:00N 46°15' W 124°44'1 1.4
2018-Jun-17 21:17N 46°16' W 124°46'1 1.7
2018-Jun-17 20:56N 46°16' W 124°47'1 1.3
2018-Jun-17 20:23N 46°16' W 124°48'1 1.4
2018-Jun-17 20:00N 46°16' W 124°48'1 1.3
2018-Jun-17 19:30N 46°17' W 124°49'1 1.1
2018-Jun-17 19:00N 46°17' W 124°50'2 3.6
2018-Jun-17 18:30N 46°16' W 124°48'4 8.5
2018-Jun-17 18:00N 46°14' W 124°42'1 2.4
2018-Jun-17 17:30N 46°13' W 124°41'1 1.8
2018-Jun-17 17:00N 46°13' W 124°42'1 1.8
2018-Jun-17 16:30N 46°14' W 124°43'1 1.9
2018-Jun-17 15:56N 46°15' W 124°45'1 1.9
2018-Jun-17 15:30N 46°15' W 124°46'1 1.9
2018-Jun-17 15:00N 46°15' W 124°47'1 1.1
2018-Jun-17 14:30N 46°15' W 124°46'5 9.1
2018-Jun-17 14:00N 46°14' W 124°40'2 4.8
2018-Jun-17 13:30N 46°13' W 124°37'1 1.9
2018-Jun-17 13:00N 46°13' W 124°38'1 1.7
2018-Jun-17 12:30N 46°14' W 124°39'1 1.7
2018-Jun-17 12:00N 46°14' W 124°40'1 1.6
2018-Jun-17 11:30N 46°14' W 124°41'1 1.5
2018-Jun-17 11:00N 46°14' W 124°42'1 1.4
2018-Jun-17 10:30N 46°15' W 124°43'1 1.4
2018-Jun-17 09:48N 46°15' W 124°45'0 1.4
2018-Jun-17 09:30N 46°15' W 124°45'1 1.1
2018-Jun-17 09:00N 46°15' W 124°46'1 1.1
2018-Jun-17 08:30N 46°15' W 124°47'2 4.8
2018-Jun-17 08:00N 46°13' W 124°47'4 8.3
2018-Jun-17 07:30N 46°09' W 124°47'0 0.9
2018-Jun-17 07:00N 46°09' W 124°48'1 1.6
2018-Jun-17 06:30N 46°10' W 124°48'1 1.5
2018-Jun-17 06:00N 46°11' W 124°47'1 1.7
2018-Jun-17 05:30N 46°11' W 124°47'1 1.9
2018-Jun-17 05:00N 46°12' W 124°47'1 2.0
2018-Jun-17 04:30N 46°13' W 124°47'1 2.0
2018-Jun-17 04:00N 46°14' W 124°47'1 2.2
2018-Jun-17 03:30N 46°15' W 124°46'3 5.0
2018-Jun-17 03:00N 46°15' W 124°43'611.5
2018-Jun-17 02:30N 46°14' W 124°35'611.1
2018-Jun-17 01:57N 46°12' W 124°26'511.0
2018-Jun-17 01:30N 46°13' W 124°19'4 7.1
2018-Jun-17 01:00N 46°13' W 124°24'612.1
2018-Jun-17 00:30N 46°13' W 124°33'4 7.2
2018-Jun-17 00:00N 46°14' W 124°38'510.3
2018-Jun-16 23:30N 46°13' W 124°45'612.4
2018-Jun-16 23:00N 46°14' W 124°54'612.3
2018-Jun-16 22:30N 46°14' W 125°03'612.8
2018-Jun-16 22:00N 46°14' W 125°12'612.6
2018-Jun-16 21:30N 46°14' W 125°22'612.2
2018-Jun-16 21:00N 46°15' W 125°30'1112.2
2018-Jun-16 20:05N 46°15' W 125°47'112.1
2018-Jun-16 20:00N 46°16' W 125°48'611.0
2018-Jun-16 19:27N 46°16' W 125°57'  

Dump ship's entire track history